Time;durP1;ratioP1;P1;durP2;ratioP2;P2;SDS_P1;SDS_P2;PMS_P1;PMS_P2;Temp;Humidity;BMP_temperature;BMP_pressure;BME280_temperature;BME280_humidity;BME280_pressure;Samples;Min_cycle;Max_cycle;Signal;HPM_P1;HPM_P2
2022/08/20 00:01:02;;;;;;;10.48;2.95;;;19.10;99.90;;;;;;4198444;28;20159;-93
2022/08/20 00:03:27;;;;;;;8.60;3.00;;;19.10;99.90;;;;;;4198505;28;20653;-91
2022/08/20 00:05:36;;;;;;;17.48;3.30;;;19.20;99.90;;;;;;4198462;28;20171;-92
2022/08/20 00:07:37;;;;;;;13.75;2.88;;;19.20;99.90;;;;;;4198207;28;20457;-94
2022/08/20 00:09:40;;;;;;;10.75;2.35;;;19.30;99.90;;;;;;4198388;28;20265;-93
2022/08/20 00:11:40;;;;;;;13.15;2.88;;;19.20;99.90;;;;;;4198360;28;20183;-93
2022/08/20 00:13:45;;;;;;;7.60;2.70;;;19.30;99.90;;;;;;4215060;28;20204;-92
2022/08/20 00:15:47;;;;;;;11.65;2.40;;;19.30;99.90;;;;;;4215040;28;20172;-93
2022/08/20 00:17:52;;;;;;;16.77;3.08;;;19.20;99.90;;;;;;4214945;28;20573;-92
2022/08/20 00:19:52;;;;;;;9.52;2.47;;;19.20;99.90;;;;;;4214792;28;20653;-94
2022/08/20 00:21:53;;;;;;;7.80;2.13;;;19.20;99.90;;;;;;4214948;28;20170;-92
2022/08/20 00:23:55;;;;;;;10.23;2.55;;;19.30;99.90;;;;;;4198030;28;20174;-93
2022/08/20 00:25:56;;;;;;;8.15;2.88;;;19.30;99.90;;;;;;4197979;28;20167;-93
2022/08/20 00:27:57;;;;;;;10.45;3.45;;;19.40;99.90;;;;;;4198095;28;20289;-93
2022/08/20 00:29:58;;;;;;;6.25;2.55;;;19.30;99.90;;;;;;4198224;28;20182;-93
2022/08/20 00:31:59;;;;;;;14.93;2.60;;;19.20;99.90;;;;;;4214849;28;20180;-94
2022/08/20 00:34:00;;;;;;;8.75;2.47;;;19.10;99.90;;;;;;4214872;28;20174;-91
2022/08/20 00:36:09;;;;;;;12.98;2.92;;;19.00;99.90;;;;;;4198002;28;20185;-93
2022/08/20 00:38:10;;;;;;;16.10;2.92;;;19.00;99.90;;;;;;4214791;28;20197;-94
2022/08/20 00:40:15;;;;;;;10.30;2.40;;;18.90;99.90;;;;;;4198048;28;20234;-91
2022/08/20 00:42:15;;;;;;;10.45;2.63;;;19.00;99.90;;;;;;4198305;28;20167;-92
2022/08/20 00:44:20;;;;;;;9.70;2.67;;;18.90;99.90;;;;;;4197871;28;20169;-94
2022/08/20 00:46:26;;;;;;;10.57;2.40;;;18.90;99.90;;;;;;4214827;28;20174;-92
2022/08/20 00:48:31;;;;;;;8.02;2.78;;;18.90;99.90;;;;;;4214850;28;20189;-95
2022/08/20 00:50:36;;;;;;;14.38;3.45;;;18.90;99.90;;;;;;4218374;28;20174;-94
2022/08/20 00:52:40;;;;;;;19.92;2.72;;;18.90;99.90;;;;;;4222614;28;20685;-92
2022/08/20 00:54:47;;;;;;;10.65;2.90;;;18.80;99.90;;;;;;4218048;28;20184;-91
2022/08/20 00:56:53;;;;;;;19.88;3.70;;;18.90;99.90;;;;;;4218080;28;20166;-93
2022/08/20 00:58:55;;;;;;;16.25;3.15;;;19.00;99.90;;;;;;4216897;28;20225;-92
2022/08/20 01:00:57;;;;;;;14.00;3.08;;;18.90;99.90;;;;;;4199073;28;20209;-92
2022/08/20 01:02:59;;;;;;;12.07;3.22;;;18.80;99.90;;;;;;4214285;28;20177;-92
2022/08/20 01:05:00;;;;;;;16.65;3.35;;;18.80;99.90;;;;;;4214479;28;20159;-92
2022/08/20 01:07:04;;;;;;;12.52;2.70;;;18.80;99.90;;;;;;4197640;28;20206;-92
2022/08/20 01:09:06;;;;;;;17.05;2.80;;;18.80;99.90;;;;;;4197611;28;20194;-92
2022/08/20 01:11:20;;;;;;;12.73;3.90;;;18.80;99.90;;;;;;4215643;28;20190;-94
2022/08/20 01:13:23;;;;;;;12.27;3.33;;;18.80;99.90;;;;;;4214780;28;20208;-92
2022/08/20 01:15:28;;;;;;;14.10;3.65;;;18.70;99.90;;;;;;4214541;28;20178;-93
2022/08/20 01:17:33;;;;;;;12.43;3.33;;;18.50;99.90;;;;;;4214469;28;20653;-92
2022/08/20 01:20:10;;;;;;;12.32;2.92;;;18.50;99.90;;;;;;4197810;28;20217;-93
2022/08/20 01:24:39;;;;;;;12.18;3.22;;;18.40;99.90;;;;;;4214610;28;20182;-92
2022/08/20 01:26:44;;;;;;;15.10;3.42;;;18.30;99.90;;;;;;4214533;28;20645;-93
2022/08/20 01:28:57;;;;;;;14.07;3.35;;;18.30;99.90;;;;;;4214363;28;20191;-92
2022/08/20 01:30:58;;;;;;;18.65;3.38;;;18.20;99.90;;;;;;4214313;28;20691;-91
2022/08/20 01:32:59;;;;;;;11.82;3.70;;;18.10;99.90;;;;;;4197484;28;20170;-92
2022/08/20 01:34:59;;;;;;;13.68;3.05;;;18.10;99.90;;;;;;4197573;28;20183;-92
2022/08/20 01:37:00;;;;;;;11.85;3.75;;;18.10;99.90;;;;;;4197586;28;20167;-93
2022/08/20 01:39:05;;;;;;;12.27;3.50;;;18.10;99.90;;;;;;4197396;28;20219;-92
2022/08/20 01:41:44;;;;;;;13.75;3.53;;;18.00;99.90;;;;;;4197647;28;20195;-95
2022/08/20 01:43:45;;;;;;;12.82;3.30;;;18.00;99.90;;;;;;4214374;28;20181;-92
2022/08/20 01:45:46;;;;;;;10.70;3.25;;;17.90;99.90;;;;;;4213987;28;20216;-91
2022/08/20 01:47:47;;;;;;;14.77;3.95;;;17.90;99.90;;;;;;4197106;28;20245;-91
2022/08/20 01:49:52;;;;;;;9.95;3.88;;;17.80;99.90;;;;;;4197274;28;20171;-92
2022/08/20 01:51:56;;;;;;;10.98;3.28;;;17.70;99.90;;;;;;4214067;28;20190;-93
2022/08/20 01:53:58;;;;;;;10.43;3.10;;;17.70;99.90;;;;;;4214083;28;20239;-91
2022/08/20 01:56:05;;;;;;;14.65;3.75;;;17.70;99.90;;;;;;4213807;28;20181;-93
2022/08/20 01:58:06;;;;;;;18.67;3.45;;;17.60;99.90;;;;;;4213645;28;20221;-92
2022/08/20 02:00:12;;;;;;;14.98;3.42;;;17.60;99.90;;;;;;4214043;28;20190;-92
2022/08/20 02:02:13;;;;;;;14.45;3.58;;;17.60;99.90;;;;;;4216370;28;20230;-92
2022/08/20 02:04:15;;;;;;;12.98;3.50;;;17.60;99.90;;;;;;4200419;28;20199;-92
2022/08/20 02:06:17;;;;;;;15.13;3.60;;;17.50;99.90;;;;;;4217225;28;20163;-94
2022/08/20 02:08:20;;;;;;;16.80;4.20;;;17.50;99.90;;;;;;4217409;28;20194;-92
2022/08/20 02:10:22;;;;;;;15.57;3.88;;;17.50;99.90;;;;;;4217134;28;20180;-93
2022/08/20 02:12:23;;;;;;;17.13;3.63;;;17.40;99.90;;;;;;4216951;28;20261;-93
2022/08/20 02:14:25;;;;;;;9.73;3.13;;;17.40;99.90;;;;;;4200064;28;20163;-93
2022/08/20 02:16:32;;;;;;;14.57;3.70;;;17.50;99.90;;;;;;4217343;28;20178;-92
2022/08/20 02:18:33;;;;;;;9.75;3.38;;;17.40;99.90;;;;;;4200296;28;20210;-93
2022/08/20 02:20:34;;;;;;;12.90;3.67;;;17.30;99.90;;;;;;4199985;28;20202;-92
2022/08/20 02:22:43;;;;;;;20.25;3.90;;;17.30;99.90;;;;;;4199947;28;20520;-91
2022/08/20 02:24:44;;;;;;;16.45;3.22;;;17.30;99.90;;;;;;4216775;28;20184;-92
2022/08/20 02:26:46;;;;;;;16.10;3.65;;;17.30;99.90;;;;;;4216751;28;20685;-92
2022/08/20 02:28:51;;;;;;;21.23;3.63;;;17.30;99.90;;;;;;4216798;28;20224;-92
2022/08/20 02:30:54;;;;;;;18.60;3.83;;;17.20;99.90;;;;;;4216735;28;20239;-91
2022/08/20 02:32:56;;;;;;;17.30;3.80;;;17.10;99.90;;;;;;4217001;28;20166;-92
2022/08/20 02:34:56;;;;;;;17.45;3.85;;;17.10;99.90;;;;;;4216922;28;20251;-92
2022/08/20 02:36:58;;;;;;;15.27;3.38;;;17.10;99.90;;;;;;4216784;28;20178;-92
2022/08/20 02:38:58;;;;;;;15.77;3.50;;;17.10;99.90;;;;;;4216406;28;20202;-91
2022/08/20 02:41:01;;;;;;;12.68;3.63;;;17.00;99.90;;;;;;4216707;28;20185;-91
2022/08/20 02:43:03;;;;;;;14.48;3.30;;;17.00;99.90;;;;;;4216499;28;20378;-93
2022/08/20 02:45:05;;;;;;;11.50;3.58;;;17.00;99.90;;;;;;4199568;28;20171;-92
2022/08/20 02:47:06;;;;;;;12.25;3.75;;;17.00;99.90;;;;;;4199693;28;20177;-92
2022/08/20 02:49:07;;;;;;;11.18;3.13;;;17.00;99.90;;;;;;4216305;28;20190;-91
2022/08/20 02:51:08;;;;;;;19.02;3.83;;;17.00;99.90;;;;;;4216491;28;20547;-92
2022/08/20 02:53:08;;;;;;;18.52;3.67;;;16.90;99.90;;;;;;4216175;28;20165;-92
2022/08/20 02:55:11;;;;;;;21.13;4.43;;;16.90;99.90;;;;;;4216322;28;20213;-93
2022/08/20 02:57:13;;;;;;;16.33;3.97;;;16.90;99.90;;;;;;4216232;28;20158;-94
2022/08/20 02:59:14;;;;;;;17.33;4.40;;;16.90;99.90;;;;;;4216258;28;20225;-94
2022/08/20 03:01:17;;;;;;;20.35;3.67;;;16.90;99.90;;;;;;4216264;28;20170;-93
2022/08/20 03:03:21;;;;;;;18.63;4.00;;;16.90;99.90;;;;;;4216228;28;20185;-94
2022/08/20 03:05:22;;;;;;;11.48;3.78;;;16.90;99.90;;;;;;4216258;28;20174;-92
2022/08/20 03:07:22;;;;;;;19.02;4.38;;;16.80;99.90;;;;;;4216224;28;20203;-94
2022/08/20 03:09:24;;;;;;;17.83;3.70;;;16.80;99.90;;;;;;4199228;28;20187;-95
2022/08/20 03:11:24;;;;;;;18.25;4.15;;;16.80;99.90;;;;;;4199209;28;20257;-91
2022/08/20 03:13:25;;;;;;;17.83;3.90;;;16.90;99.90;;;;;;4215609;28;20213;-93
2022/08/20 03:15:30;;;;;;;18.25;4.03;;;16.90;99.90;;;;;;4215870;28;20175;-94
2022/08/20 03:17:31;;;;;;;15.70;4.10;;;16.80;99.90;;;;;;4199306;28;20178;-93
2022/08/20 03:19:32;;;;;;;14.27;3.75;;;16.80;99.90;;;;;;4199334;28;20685;-93
2022/08/20 03:21:34;;;;;;;21.75;3.95;;;16.70;99.90;;;;;;4199276;28;20171;-93
2022/08/20 03:23:36;;;;;;;19.58;4.20;;;16.70;99.90;;;;;;4215748;28;20601;-94
2022/08/20 03:25:37;;;;;;;17.02;4.30;;;16.70;99.90;;;;;;4215744;28;20201;-91
2022/08/20 03:27:38;;;;;;;18.63;3.80;;;16.70;99.90;;;;;;4198999;28;20266;-92
2022/08/20 03:29:38;;;;;;;15.07;4.60;;;16.70;99.90;;;;;;4198971;28;20187;-91
2022/08/20 03:31:39;;;;;;;26.15;4.82;;;16.80;99.90;;;;;;4199123;28;20191;-91
2022/08/20 03:33:41;;;;;;;24.65;4.63;;;16.80;99.90;;;;;;4215813;28;20178;-92
2022/08/20 03:35:42;;;;;;;14.30;4.00;;;16.80;99.90;;;;;;4215822;28;20169;-92
2022/08/20 03:37:43;;;;;;;22.65;4.70;;;16.80;99.90;;;;;;4215337;28;20170;-94
2022/08/20 03:39:43;;;;;;;18.27;4.78;;;16.70;99.90;;;;;;4215446;28;20214;-93
2022/08/20 03:41:44;;;;;;;19.38;4.32;;;16.70;99.90;;;;;;4198991;28;20175;-92
2022/08/20 03:43:45;;;;;;;15.93;4.60;;;16.70;99.90;;;;;;4198834;28;20651;-92
2022/08/20 03:45:46;;;;;;;14.00;3.83;;;16.60;99.90;;;;;;4199273;28;20175;-93
2022/08/20 03:47:48;;;;;;;24.90;4.55;;;16.60;99.90;;;;;;4200958;28;20528;-91
2022/08/20 03:49:49;;;;;;;15.73;4.45;;;16.50;99.90;;;;;;4203583;28;20175;-92
2022/08/20 03:51:50;;;;;;;22.13;4.72;;;16.60;99.90;;;;;;4199478;28;20272;-93
2022/08/20 03:53:51;;;;;;;18.98;4.82;;;16.60;99.90;;;;;;4198714;28;20658;-91
2022/08/20 03:55:53;;;;;;;21.17;4.40;;;16.50;99.90;;;;;;4215363;28;20649;-94
2022/08/20 03:57:57;;;;;;;15.05;4.40;;;16.50;99.90;;;;;;4214981;28;20229;-94
2022/08/20 03:59:58;;;;;;;21.15;4.60;;;16.50;99.90;;;;;;4215212;28;20255;-93
2022/08/20 04:01:59;;;;;;;18.08;3.95;;;16.60;99.90;;;;;;4215331;28;20174;-92
2022/08/20 04:04:00;;;;;;;21.35;4.85;;;16.50;99.90;;;;;;4217977;28;20182;-92
2022/08/20 04:06:01;;;;;;;23.80;4.88;;;16.50;99.90;;;;;;4226842;28;20162;-93
2022/08/20 04:08:04;;;;;;;17.77;4.75;;;16.50;99.90;;;;;;4205739;28;20251;-93
2022/08/20 04:10:09;;;;;;;19.95;4.78;;;16.50;99.90;;;;;;4201278;28;20179;-92
2022/08/20 04:12:13;;;;;;;15.63;5.03;;;16.50;99.90;;;;;;4216298;28;20166;-94
2022/08/20 04:14:14;;;;;;;20.23;5.32;;;16.50;99.90;;;;;;4216182;28;20265;-92
2022/08/20 04:16:14;;;;;;;16.38;4.20;;;16.50;99.90;;;;;;4199087;28;20175;-93
2022/08/20 04:18:19;;;;;;;17.45;5.00;;;16.50;99.90;;;;;;4198464;28;20210;-92
2022/08/20 04:20:24;;;;;;;17.40;5.28;;;16.40;99.90;;;;;;4198415;28;20229;-92
2022/08/20 04:22:25;;;;;;;18.48;4.88;;;16.40;99.90;;;;;;4215166;28;20166;-91
2022/08/20 04:24:26;;;;;;;17.95;4.60;;;16.40;99.90;;;;;;4197866;28;20686;-91
2022/08/20 04:26:27;;;;;;;19.02;4.95;;;16.40;99.90;;;;;;4198561;28;20215;-92
2022/08/20 04:28:27;;;;;;;21.38;5.28;;;16.40;99.90;;;;;;4198641;28;20674;-93
2022/08/20 04:30:29;;;;;;;14.70;4.85;;;16.40;99.90;;;;;;4199077;28;20270;-93
2022/08/20 04:32:29;;;;;;;20.58;5.68;;;16.30;99.90;;;;;;4198297;28;20266;-91
2022/08/20 04:34:30;;;;;;;21.42;5.30;;;16.30;99.90;;;;;;4214839;28;20170;-92
2022/08/20 04:36:31;;;;;;;27.70;5.57;;;16.30;99.90;;;;;;4214940;28;20244;-92
2022/08/20 04:38:32;;;;;;;18.85;5.25;;;16.30;99.90;;;;;;4197939;28;20336;-95
2022/08/20 04:40:56;;;;;;;25.25;5.30;;;16.30;99.90;;;;;;4214916;28;20535;-93
2022/08/20 04:42:57;;;;;;;18.63;5.50;;;16.30;99.90;;;;;;4214970;28;20185;-93
2022/08/20 04:44:58;;;;;;;19.10;4.88;;;16.30;99.90;;;;;;4198234;28;20175;-93
2022/08/20 04:46:58;;;;;;;17.13;4.70;;;16.30;99.90;;;;;;4197888;28;20671;-92
2022/08/20 04:49:00;;;;;;;23.17;4.95;;;16.30;99.90;;;;;;4197867;28;20199;-93
2022/08/20 04:51:01;;;;;;;17.67;5.00;;;16.30;99.90;;;;;;4214744;28;20166;-91
2022/08/20 04:53:09;;;;;;;16.38;4.78;;;16.30;99.90;;;;;;4198025;28;20239;-92
2022/08/20 04:55:10;;;;;;;18.02;5.10;;;16.40;99.90;;;;;;4214873;28;20176;-93
2022/08/20 04:57:11;;;;;;;18.50;5.50;;;16.30;99.90;;;;;;4197875;28;20171;-92
2022/08/20 04:59:11;;;;;;;21.02;5.55;;;16.30;99.90;;;;;;4214909;28;20237;-94
2022/08/20 05:01:13;;;;;;;31.08;5.88;;;16.30;99.90;;;;;;4214788;28;20227;-93
2022/08/20 05:03:15;;;;;;;23.00;5.28;;;16.20;99.90;;;;;;4197934;28;20167;-93
2022/08/20 05:05:16;;;;;;;21.40;5.32;;;16.30;99.90;;;;;;4197949;28;20284;-94
2022/08/20 05:07:17;;;;;;;22.92;5.65;;;16.30;99.90;;;;;;4198199;28;20570;-93
2022/08/20 05:09:18;;;;;;;20.00;5.60;;;16.30;99.90;;;;;;4214559;28;20196;-92
2022/08/20 05:11:20;;;;;;;23.98;5.97;;;16.40;99.90;;;;;;4214644;28;20589;-95
2022/08/20 05:13:21;;;;;;;21.15;5.82;;;16.40;99.90;;;;;;4214931;28;20186;-94
2022/08/20 05:15:23;;;;;;;21.80;5.57;;;16.50;99.90;;;;;;4214951;28;20665;-94
2022/08/20 05:17:24;;;;;;;15.90;5.13;;;16.50;99.90;;;;;;4198311;28;20236;-94
2022/08/20 05:19:25;;;;;;;24.17;5.60;;;16.50;99.90;;;;;;4214542;28;20217;-94
2022/08/20 05:21:26;;;;;;;17.63;5.13;;;16.60;99.90;;;;;;4198057;28;20159;-94
2022/08/20 05:23:27;;;;;;;18.23;5.90;;;16.50;99.90;;;;;;4214589;28;20174;-95
2022/08/20 05:25:28;;;;;;;22.27;5.10;;;16.50;99.90;;;;;;4214434;28;20538;-94
2022/08/20 05:27:29;;;;;;;25.60;5.38;;;16.60;99.90;;;;;;4214804;28;20637;-93
2022/08/20 05:29:30;;;;;;;20.42;4.82;;;16.60;99.90;;;;;;4198021;28;20194;-94
2022/08/20 05:31:32;;;;;;;20.98;4.80;;;16.70;99.90;;;;;;4198198;28;20167;-93
2022/08/20 05:33:32;;;;;;;21.67;4.97;;;16.60;99.90;;;;;;4197794;28;20647;-93
2022/08/20 05:35:37;;;;;;;19.90;5.32;;;16.70;99.90;;;;;;4199025;28;20159;-94
2022/08/20 05:37:40;;;;;;;25.80;5.55;;;16.70;99.90;;;;;;4201018;28;20167;-95
2022/08/20 05:39:40;;;;;;;19.70;5.20;;;16.70;99.90;;;;;;4217553;28;20209;-93
2022/08/20 05:41:41;;;;;;;14.57;5.18;;;16.80;99.90;;;;;;4201084;28;20170;-96
2022/08/20 05:43:43;;;;;;;19.25;5.43;;;16.80;99.90;;;;;;4200768;28;20179;-93
2022/08/20 05:45:46;;;;;;;22.88;4.93;;;16.80;99.90;;;;;;4200921;28;20612;-94
2022/08/20 05:47:47;;;;;;;22.23;5.63;;;16.80;99.90;;;;;;4200639;28;20531;-95
2022/08/20 05:49:48;;;;;;;18.70;5.03;;;16.90;99.90;;;;;;4200638;28;20273;-94
2022/08/20 05:51:50;;;;;;;16.88;5.15;;;17.00;99.90;;;;;;4200695;28;20178;-94
2022/08/20 05:53:50;;;;;;;29.23;5.32;;;17.00;99.90;;;;;;4200956;28;20171;-95
2022/08/20 05:55:52;;;;;;;18.63;5.05;;;17.10;99.90;;;;;;4200761;28;20222;-94
2022/08/20 05:57:58;;;;;;;20.20;5.15;;;17.10;99.90;;;;;;4217602;28;20213;-94
2022/08/20 06:00:01;;;;;;;16.20;4.90;;;17.40;99.90;;;;;;4217851;28;20217;-93
2022/08/20 06:04:33;;;;;;;22.00;5.47;;;17.70;99.90;;;;;;4234467;28;20213;-94
2022/08/20 06:06:33;;;;;;;17.63;4.22;;;17.70;99.90;;;;;;4217440;28;20193;-94
2022/08/20 06:08:35;;;;;;;19.17;4.80;;;17.80;99.90;;;;;;4200531;28;20195;-94
2022/08/20 06:10:40;;;;;;;20.48;4.70;;;17.80;99.90;;;;;;4217514;28;20177;-94
2022/08/20 06:12:43;;;;;;;19.42;4.88;;;17.80;99.90;;;;;;4217390;28;20178;-95
2022/08/20 06:14:46;;;;;;;15.50;4.28;;;17.80;99.90;;;;;;4200394;28;20159;-94
2022/08/20 06:16:47;;;;;;;20.45;5.57;;;18.00;99.90;;;;;;4217360;28;20182;-94
2022/08/20 06:18:48;;;;;;;19.13;4.32;;;18.10;99.90;;;;;;4216645;28;20263;-93
2022/08/20 06:20:49;;;;;;;19.80;5.15;;;18.20;99.90;;;;;;4217213;28;20170;-95
2022/08/20 06:22:50;;;;;;;19.70;5.57;;;18.40;99.90;;;;;;4200607;28;20198;-93
2022/08/20 06:24:51;;;;;;;24.48;5.57;;;18.50;99.90;;;;;;4200235;28;20216;-93
2022/08/20 06:26:59;;;;;;;21.60;5.10;;;18.60;99.90;;;;;;4200178;28;20282;-93
2022/08/20 06:29:02;;;;;;;20.55;4.68;;;18.40;99.90;;;;;;4217134;28;20185;-94
2022/08/20 06:31:03;;;;;;;17.55;4.55;;;18.30;99.90;;;;;;4217185;28;20178;-93
2022/08/20 06:33:03;;;;;;;14.95;5.20;;;18.40;99.90;;;;;;4216719;28;20592;-94
2022/08/20 06:35:06;;;;;;;27.30;6.07;;;18.40;99.90;;;;;;4200158;28;20175;-94
2022/08/20 06:37:19;;;;;;;19.90;5.22;;;18.50;99.90;;;;;;4200252;28;20262;-93
2022/08/20 06:39:20;;;;;;;23.77;5.45;;;18.70;99.90;;;;;;4216717;28;20222;-94
2022/08/20 06:41:21;;;;;;;21.67;5.43;;;18.60;99.90;;;;;;4216907;28;20162;-94
2022/08/20 06:43:22;;;;;;;20.13;4.95;;;18.80;99.90;;;;;;4216799;28;20707;-93
2022/08/20 06:45:26;;;;;;;16.67;4.95;;;18.90;99.90;;;;;;4216884;28;20562;-93
2022/08/20 06:47:26;;;;;;;23.45;5.75;;;19.00;99.90;;;;;;4216179;28;20193;-93
2022/08/20 06:49:27;;;;;;;13.80;4.28;;;19.10;99.90;;;;;;4199897;28;20713;-93
2022/08/20 06:51:29;;;;;;;12.45;4.47;;;19.20;99.90;;;;;;4199811;28;20210;-96
2022/08/20 06:53:29;;;;;;;31.00;5.28;;;19.30;99.90;;;;;;4216317;28;20178;-93
2022/08/20 06:55:31;;;;;;;18.77;5.18;;;19.40;99.90;;;;;;4199322;28;20261;-95
2022/08/20 06:57:33;;;;;;;17.58;4.72;;;19.40;99.90;;;;;;4216436;28;20264;-94
2022/08/20 06:59:35;;;;;;;18.27;5.43;;;19.60;99.90;;;;;;4216395;28;20218;-94
2022/08/20 07:01:36;;;;;;;16.60;4.72;;;19.60;99.90;;;;;;4216786;28;20170;-94
2022/08/20 07:03:41;;;;;;;16.00;4.90;;;19.80;99.90;;;;;;4199836;28;20243;-94
2022/08/20 07:05:43;;;;;;;21.25;4.82;;;19.90;99.90;;;;;;4199723;28;20178;-93
2022/08/20 07:07:46;;;;;;;18.45;5.47;;;20.10;99.90;;;;;;4216690;28;20182;-92
2022/08/20 07:09:47;;;;;;;20.50;5.40;;;20.30;99.90;;;;;;4216714;28;20537;-93
2022/08/20 07:11:48;;;;;;;18.25;5.25;;;20.50;99.90;;;;;;4200459;28;20635;-93
2022/08/20 07:13:48;;;;;;;23.90;4.97;;;20.50;99.90;;;;;;4217193;28;20178;-94
2022/08/20 07:15:49;;;;;;;12.75;4.60;;;20.80;99.90;;;;;;4204818;28;20179;-93
2022/08/20 07:17:58;;;;;;;19.65;4.80;;;21.60;99.90;;;;;;4210092;28;20170;-93
2022/08/20 07:20:04;;;;;;;21.63;4.30;;;23.00;99.90;;;;;;4206933;28;20193;-94
2022/08/20 07:22:05;;;;;;;11.75;3.47;;;24.90;99.90;;;;;;4220827;28;20223;-96
2022/08/20 07:24:08;;;;;;;16.95;3.53;;;26.40;99.90;;;;;;4200479;28;20179;-92
2022/08/20 07:26:09;;;;;;;11.05;3.10;;;27.80;99.90;;;;;;4216616;28;20216;-95
2022/08/20 07:28:16;;;;;;;17.30;3.88;;;28.70;99.90;;;;;;4216475;28;20803;-93
2022/08/20 07:32:45;;;;;;;16.85;3.70;;;30.30;99.90;;;;;;4232589;28;20704;-95
2022/08/20 07:34:46;;;;;;;15.93;3.95;;;30.30;99.90;;;;;;4215861;28;20174;-95
2022/08/20 07:36:47;;;;;;;16.90;3.70;;;30.50;99.90;;;;;;4199188;28;20209;-93
2022/08/20 07:38:51;;;;;;;13.32;3.92;;;31.40;99.90;;;;;;4200711;28;20237;-94
2022/08/20 07:41:04;;;;;;;15.77;4.05;;;32.20;99.90;;;;;;4199221;28;20182;-93
2022/08/20 07:43:05;;;;;;;14.82;4.13;;;32.30;99.90;;;;;;4217461;28;20166;-94
2022/08/20 07:45:09;;;;;;;10.07;3.42;;;32.40;99.90;;;;;;4199242;28;20254;-93
2022/08/20 07:47:11;;;;;;;11.25;3.90;;;31.80;99.90;;;;;;4199069;28;20224;-94
2022/08/20 07:49:11;;;;;;;12.13;3.85;;;31.60;99.90;;;;;;4198843;28;20202;-96
2022/08/20 07:51:15;;;;;;;15.48;4.13;;;31.40;99.90;;;;;;4215794;28;20174;-95
2022/08/20 07:53:17;;;;;;;17.77;4.20;;;32.20;99.90;;;;;;4216407;28;20173;-94
2022/08/20 07:55:19;;;;;;;14.52;3.50;;;32.50;99.90;;;;;;4200145;28;20175;-95
2022/08/20 07:57:20;;;;;;;8.73;3.38;;;32.70;99.90;;;;;;4201530;28;20170;-94
2022/08/20 07:59:22;;;;;;;12.88;3.70;;;33.00;99.90;;;;;;4198792;28;20229;-93
2022/08/20 08:01:27;;;;;;;14.55;4.03;;;33.60;99.90;;;;;;4201873;28;20162;-95
2022/08/20 08:03:28;;;;;;;14.27;4.88;;;32.90;99.90;;;;;;4199512;28;20201;-94
2022/08/20 08:05:30;;;;;;;19.45;3.85;;;32.70;99.90;;;;;;4198888;28;20174;-94
2022/08/20 08:07:32;;;;;;;16.63;4.40;;;32.70;99.90;;;;;;4215719;28;20244;-94
2022/08/20 08:09:33;;;;;;;10.20;3.65;;;32.90;99.90;;;;;;4218009;28;20174;-94
2022/08/20 08:11:39;;;;;;;10.40;3.40;;;33.00;99.90;;;;;;4215717;28;20230;-95
2022/08/20 08:13:40;;;;;;;11.90;3.47;;;33.40;99.90;;;;;;4218190;28;20169;-94
2022/08/20 08:15:47;;;;;;;14.93;3.58;;;33.50;99.90;;;;;;4215774;28;20166;-95
2022/08/20 08:17:49;;;;;;;10.40;3.45;;;33.30;99.90;;;;;;4215934;28;20256;-94
2022/08/20 08:19:50;;;;;;;25.40;3.38;;;33.60;99.90;;;;;;4215231;28;20213;-96
2022/08/20 08:21:51;;;;;;;11.57;3.42;;;34.10;99.90;;;;;;4217272;28;20264;-95
2022/08/20 08:23:52;;;;;;;9.88;3.50;;;33.80;99.90;;;;;;4199142;28;20209;-95
2022/08/20 08:25:53;;;;;;;8.48;3.85;;;33.50;99.90;;;;;;4198829;28;20171;-95
2022/08/20 08:27:53;;;;;;;14.63;3.88;;;33.50;99.90;;;;;;4199233;28;20198;-94
2022/08/20 08:29:54;;;;;;;12.35;3.55;;;34.10;99.90;;;;;;4201126;28;20748;-94
2022/08/20 08:31:55;;;;;;;10.45;3.40;;;33.30;99.90;;;;;;4199354;28;20170;-96
2022/08/20 08:33:56;;;;;;;12.90;3.25;;;32.00;99.90;;;;;;4217968;28;20177;-95
2022/08/20 08:36:08;;;;;;;11.35;3.10;;;32.20;99.90;;;;;;4199449;28;20261;-94
2022/08/20 08:38:09;;;;;;;12.25;2.83;;;30.80;99.90;;;;;;4198197;28;20221;-94
2022/08/20 08:40:10;;;;;;;10.60;2.78;;;30.70;99.90;;;;;;4215348;28;20189;-94
2022/08/20 08:42:41;;;;;;;12.77;2.60;;;30.40;99.90;;;;;;4199863;28;20661;-93
2022/08/20 08:44:42;;;;;;;13.23;2.40;;;30.30;99.90;;;;;;4200128;28;20185;-93
2022/08/20 08:46:47;;;;;;;15.13;2.45;;;30.20;99.90;;;;;;4198693;28;20171;-94
2022/08/20 08:48:52;;;;;;;10.75;2.70;;;30.30;99.90;;;;;;4199258;28;20270;-93
2022/08/20 08:50:57;;;;;;;11.35;2.60;;;30.30;99.90;;;;;;4214797;28;20264;-91
2022/08/20 08:53:01;;;;;;;13.30;2.70;;;30.30;99.90;;;;;;4198323;28;20678;-95
2022/08/20 08:55:11;;;;;;;9.93;2.13;;;30.70;99.90;;;;;;4197963;28;20316;-94
2022/08/20 08:57:11;;;;;;;13.35;2.10;;;30.20;99.90;;;;;;4214586;28;20174;-93
2022/08/20 08:59:12;;;;;;;12.75;2.95;;;29.60;99.90;;;;;;4215508;28;20236;-93
2022/08/20 09:01:17;;;;;;;11.95;2.33;;;29.70;99.90;;;;;;4216022;28;20279;-95
2022/08/20 09:03:28;;;;;;;16.33;2.50;;;28.90;99.90;;;;;;4214927;28;20562;-94
2022/08/20 09:05:45;;;;;;;11.40;2.25;;;27.80;99.90;;;;;;4214924;28;20235;-93
2022/08/20 09:07:49;;;;;;;16.27;3.00;;;26.80;99.90;;;;;;4215342;28;20266;-95
2022/08/20 09:09:51;;;;;;;13.13;2.30;;;26.50;99.90;;;;;;4215583;28;20169;-95
2022/08/20 09:12:00;;;;;;;10.25;2.17;;;26.50;99.90;;;;;;4215942;28;20200;-94
2022/08/20 09:14:01;;;;;;;16.17;2.40;;;26.20;99.90;;;;;;4220127;28;20245;-92
2022/08/20 09:16:02;;;;;;;12.52;1.98;;;26.30;99.90;;;;;;4200863;28;20163;-93
2022/08/20 09:18:03;;;;;;;10.07;1.90;;;26.90;99.90;;;;;;4201249;28;20194;-94
2022/08/20 09:20:04;;;;;;;19.05;2.45;;;27.10;99.90;;;;;;4198332;28;20269;-94
2022/08/20 09:22:14;;;;;;;12.65;2.28;;;27.40;99.90;;;;;;4215985;28;20170;-93
2022/08/20 09:24:14;;;;;;;16.13;2.38;;;27.90;99.90;;;;;;4198596;28;20208;-93
2022/08/20 09:26:15;;;;;;;16.63;2.40;;;27.80;99.90;;;;;;4197974;28;20194;-96
2022/08/20 09:28:16;;;;;;;9.65;2.50;;;27.90;99.90;;;;;;4198903;28;20671;-94
2022/08/20 09:30:17;;;;;;;12.18;1.80;;;27.40;99.90;;;;;;4198437;28;20201;-93
2022/08/20 09:32:20;;;;;;;9.38;1.92;;;27.50;99.90;;;;;;4198834;28;20167;-95
2022/08/20 09:34:21;;;;;;;6.57;2.00;;;27.50;99.90;;;;;;4199353;28;20630;-96
2022/08/20 09:36:22;;;;;;;15.20;2.72;;;27.60;99.90;;;;;;4215399;28;20169;-93
2022/08/20 09:38:22;;;;;;;8.88;2.03;;;27.40;99.90;;;;;;4214408;28;20288;-94
2022/08/20 09:40:23;;;;;;;11.75;2.10;;;27.70;99.90;;;;;;4215903;28;20191;-92
2022/08/20 09:42:29;;;;;;;12.05;2.28;;;27.70;99.90;;;;;;4198762;28;20170;-94
2022/08/20 09:44:30;;;;;;;12.25;2.38;;;28.10;99.90;;;;;;4198301;28;20221;-94
2022/08/20 09:46:31;;;;;;;15.05;2.72;;;28.40;99.90;;;;;;4198407;28;20538;-92
2022/08/20 09:48:32;;;;;;;16.17;2.28;;;27.10;99.90;;;;;;4197193;28;20270;-93
2022/08/20 09:50:34;;;;;;;11.57;2.20;;;27.40;99.90;;;;;;4214024;28;20167;-93
2022/08/20 09:52:39;;;;;;;20.65;2.40;;;28.00;99.90;;;;;;4214459;28;20233;-92
2022/08/20 09:54:40;;;;;;;15.50;2.47;;;27.80;99.90;;;;;;4215370;28;20170;-93
2022/08/20 09:56:41;;;;;;;12.10;2.47;;;28.50;99.90;;;;;;4197911;28;20233;-96
2022/08/20 09:58:48;;;;;;;14.55;2.42;;;28.90;99.90;;;;;;4197327;28;20328;-93
2022/08/20 10:00:49;;;;;;;9.63;2.00;;;29.20;99.90;;;;;;4214305;28;20182;-93
2022/08/20 10:02:50;;;;;;;7.78;2.15;;;29.60;99.90;;;;;;4214232;28;20221;-95
2022/08/20 10:04:51;;;;;;;9.13;1.90;;;29.80;99.90;;;;;;4198863;28;20249;-93
2022/08/20 10:06:52;;;;;;;10.80;2.25;;;30.10;99.90;;;;;;4198477;28;20598;-93
2022/08/20 10:08:54;;;;;;;9.32;2.42;;;30.40;99.90;;;;;;4197814;28;20197;-94
2022/08/20 10:10:55;;;;;;;9.48;2.10;;;30.30;99.90;;;;;;4214858;28;20172;-93
2022/08/20 10:12:56;;;;;;;6.78;2.28;;;29.90;99.90;;;;;;4197997;28;20691;-94
2022/08/20 10:14:56;;;;;;;7.93;1.92;;;28.90;99.90;;;;;;4200241;28;20197;-93
2022/08/20 10:16:59;;;;;;;8.52;2.20;;;27.80;99.90;;;;;;4199344;28;20265;-92
2022/08/20 10:19:00;;;;;;;12.40;2.50;;;27.20;99.90;;;;;;4214450;28;20213;-95
2022/08/20 10:21:01;;;;;;;12.65;2.55;;;26.60;99.90;;;;;;4214097;28;20526;-93
2022/08/20 10:23:03;;;;;;;10.65;2.17;;;26.20;99.90;;;;;;4216509;28;20182;-93
2022/08/20 10:25:04;;;;;;;11.10;2.15;;;25.50;99.90;;;;;;4217254;28;20163;-93
2022/08/20 10:27:06;;;;;;;12.77;2.33;;;25.40;99.90;;;;;;4200586;28;20304;-92
2022/08/20 10:29:06;;;;;;;12.55;2.13;;;25.30;99.90;;;;;;4218402;28;20179;-93
2022/08/20 10:31:09;;;;;;;8.98;2.20;;;25.60;99.90;;;;;;4217733;28;20632;-93
2022/08/20 10:33:10;;;;;;;8.50;2.05;;;25.80;99.90;;;;;;4219079;28;20181;-92
2022/08/20 10:35:10;;;;;;;10.18;2.20;;;25.90;99.90;;;;;;4217440;28;20174;-93
2022/08/20 10:37:21;;;;;;;10.43;2.03;;;26.00;99.90;;;;;;4201022;28;20179;-93
2022/08/20 10:39:21;;;;;;;12.18;2.20;;;26.30;99.90;;;;;;4201142;28;20578;-93